Airfield :
LOGIN :

Register | Disclaimer

   EN    FR    IT 

 










Legend :    VFR   Marginal VFR   IFR   Intensive IFR   Very Intensive IFR
Visi :
Ceiling :
>= 8 km
>= 3000ft
5 to 8 km
1000 to 3000 ft
1500m to 5 km
500 to 1000 ft
800 to 1500m
200 to 500 ft
< 800m
< 200 ft
Symbols :   Thunderstorms  Fog  Heavy snow  Heavy precipitations  Wind > 20 kt
SIGMETs :     Misc.  Thunderstorms  Icing  Turbulence  Mountain Waves  Volcanic Ashes







- Airport Elevation : 220 ft
- IATA code : CWL
- Download approach charts


EGFF - Cardiff Rhoose

CURRENT METAR :
  • 150950Z AUTO 32007KT 280V350 9999 NCD 05/00 Q1001

EXPIRED METARs :
  • 150920Z AUTO 35008KT 9999 NCD 04/00 Q1000
  • 150850Z AUTO 35008KT 9999 NCD 03/00 Q1000
  • 150820Z AUTO 32009KT 9999 NCD 03/00 Q0999
  • 150750Z AUTO 32011KT 9999 NCD 03/00 Q0998
  • 150720Z AUTO 34013KT 9999 FEW028 04/01 Q0997

TAF TAF EGFF
Valid from the 15 at 06:00 until the 16 at 06:00 UTC


150519Z 1506/1606 34010KT 9999 FEW025
PROB30
TEMPO 1506/1512 33015G25KT
BECMG 1521/1524 VRB05KT
ATIS : +44 1446 729 319
No reported NOTAMs for that airfield.



MET'MAP, your aeronautical weather chart ! - Copyright ORBIFLY December 2007 - Disclaimer

ORBIFLY MET'MAP TEAM :

Programming & Development : Alexandra Zaïnal
Concept & Development : Baudouin d'Aumeries
Co-Development & Prog : Marc-Olivier Méhu
Technical & hardware support : Manuel Goepfert

Contact : metmap@orbifly.com




SOURCES & CREDITS :

   NOAA